Airfield :
LOGIN :

Register | Disclaimer

   EN    FR    IT 

 










Legend :    VFR   Marginal VFR   IFR   Intensive IFR   Very Intensive IFR
Visi :
Ceiling :
>= 8 km
>= 3000ft
5 to 8 km
1000 to 3000 ft
1500m to 5 km
500 to 1000 ft
800 to 1500m
200 to 500 ft
< 800m
< 200 ft
Symbols :   Thunderstorms  Fog  Heavy snow  Heavy precipitations  Wind > 20 kt
SIGMETs :     Misc.  Thunderstorms  Icing  Turbulence  Mountain Waves  Volcanic Ashes






- Airport Elevation : 17 ft
- IATA code : GRQ


EHGG - Groningen Eelde

CURRENT METAR :
  • 180525Z AUTO 17007KT 130V200 9999 FEW009 BKN010 OVC013 13/12 Q1004 TEMPO BKN007

EXPIRED METARs :
  • 180455Z AUTO 16007KT 140V200 9000 BKN010 BKN013 OVC016 13/12 Q1004 TEMPO BKN007
  • 180425Z AUTO 16007KT 110V190 7000 FEW009 BKN011 OVC015 13/12 Q1004 TEMPO BKN007
  • 180355Z AUTO 16006KT 130V190 6000 FEW008 SCT009 BKN011 12/12 Q1005 TEMPO BKN007
  • 180325Z AUTO 16005KT 3900 BR FEW004 SCT007 BKN008 12/11 Q1005
  • 180255Z AUTO 15005KT 130V190 4000 -RA FEW007 FEW015CB SCT032 BKN037 12/11 Q1006

TAF TAF EHGG
Valid from the 18 at 06:00 until the 19 at 12:00 UTC


180457Z 1806/1912 16008KT 9999 BKN012
PROB30 1806/1808 7000 BKN008
BECMG 1806/1809 19011KT BKN025
BECMG 1809/1812 22018G28KT
TEMPO 1809/1815 22022G33KT 4000 SHRA SHRAGS SCT020CB
PROB30
TEMPO 1815/1821 7000 -SHRA FEW020CB
BECMG 1900/1903 20012KT
PROB40
TEMPO 1908/1912 6000 RA SHRA BKN016 FEW020CB



MET'MAP, your aeronautical weather chart ! - Copyright ORBIFLY December 2007 - Disclaimer

ORBIFLY MET'MAP TEAM :

Programming & Development : Alexandra Zaïnal
Concept & Development : Baudouin d'Aumeries
Co-Development & Prog : Marc-Olivier Méhu
Technical & hardware support : Manuel Goepfert

Contact : metmap@orbifly.com




SOURCES & CREDITS :

   NOAA